Terminal Aerodrome Forecast
Issued by NWS

Home | Current Version | Previous Version | Text Only | Print | Product List | Glossary On
Versions: 1 2 3 4 5 6 7 8 9 10 11 12 13 14 15 16 17 18 19 20 21 22 23
000
FTUS43 KDLH 161607 AAA
TAFHYR
TAF AMD
KHYR 161607Z 1616/1712 13007KT P6SM BKN045 OVC060
      TEMPO 1617/1619 6SM -SHRA BR
     FM161900 12009KT P6SM VCTS SCT035CB OVC060
     FM170300 11008KT P6SM -SHRA VCTS SCT025CB OVC050
     FM170600 12006KT 4SM -SHRA VCTS OVC015CB
     FM171000 10006KT 2SM -SHRA BR VCTS BKN006 OVC015CB=

USA.gov is the U.S. government's official web portal to all federal, state and local government web resources and services.